createdAt,value
2024-01-20T00:02:11.712Z,-1.33
2024-01-20T00:04:44.249Z,-1.30
2024-01-20T00:07:17.046Z,-1.20
2024-01-20T00:09:51.137Z,-1.04
2024-01-20T00:12:28.167Z,-1.22
2024-01-20T00:15:28.241Z,-1.32
2024-01-20T00:18:03.898Z,-1.47
2024-01-20T00:20:50.035Z,-1.51
2024-01-20T00:23:36.937Z,-1.50
2024-01-20T00:26:18.358Z,-1.57
2024-01-20T00:28:49.563Z,-1.59
2024-01-20T00:31:26.535Z,-1.66
2024-01-20T00:34:02.827Z,-1.73
2024-01-20T00:36:36.315Z,-1.71
2024-01-20T00:39:14.876Z,-1.69
2024-01-20T00:41:51.581Z,-1.69
2024-01-20T00:44:20.786Z,-1.73
2024-01-20T00:46:57.690Z,-1.80
2024-01-20T00:49:37.361Z,-1.67
2024-01-20T00:52:17.652Z,-1.68
2024-01-20T00:54:48.882Z,-1.70
2024-01-20T00:57:28.107Z,-1.83
2024-01-20T01:00:22.478Z,-2.07
2024-01-20T01:03:04.067Z,-2.06
2024-01-20T01:05:42.969Z,-1.98
2024-01-20T01:08:17.837Z,-1.97
2024-01-20T01:11:07.723Z,-2.07
2024-01-20T01:13:46.788Z,-2.11
2024-01-20T01:16:23.474Z,-2.27
2024-01-20T01:19:30.324Z,-2.55
2024-01-20T01:22:41.411Z,-2.59
2024-01-20T01:25:30.707Z,-2.58
2024-01-20T01:28:03.016Z,-2.56
2024-01-20T01:30:41.051Z,-2.63
2024-01-20T01:33:17.202Z,-2.74
2024-01-20T01:35:51.557Z,-2.57
2024-01-20T01:38:50.311Z,-2.52
2024-01-20T01:44:42.362Z,-2.48
2024-01-20T01:47:20.068Z,-2.43
2024-01-20T01:49:56.778Z,-2.40
2024-01-20T01:52:37.011Z,-2.50
2024-01-20T01:55:20.811Z,-2.50
2024-01-20T01:57:59.906Z,-2.40
2024-01-20T02:00:34.676Z,-2.41
2024-01-20T02:03:25.870Z,-2.53
2024-01-20T02:06:10.348Z,-2.74
2024-01-20T02:09:05.325Z,-2.88
2024-01-20T02:11:48.805Z,-3.11
2024-01-20T02:14:28.589Z,-3.11
2024-01-20T02:19:57.158Z,-2.99
2024-01-20T02:22:54.402Z,-2.90
2024-01-20T02:25:43.681Z,-2.84
2024-01-20T02:28:26.233Z,-2.78
2024-01-20T02:31:03.352Z,-2.97
2024-01-20T02:34:08.506Z,-3.09
2024-01-20T02:36:43.529Z,-3.17
2024-01-20T02:39:55.420Z,-3.32
2024-01-20T02:43:16.941Z,-3.44
2024-01-20T02:49:09.663Z,-3.50
2024-01-20T02:52:13.122Z,-3.43
2024-01-20T02:57:52.853Z,-3.41
2024-01-20T03:00:33.214Z,-3.41
2024-01-20T03:03:07.346Z,-3.41
2024-01-20T03:08:41.025Z,-3.45
2024-01-20T03:14:04.706Z,-3.40
2024-01-20T03:16:35.700Z,-3.44
2024-01-20T03:19:11.173Z,-3.40
2024-01-20T03:24:47.085Z,-3.09
2024-01-20T03:31:31.797Z,-3.09
2024-01-20T03:34:30.507Z,-3.10
2024-01-20T03:37:32.869Z,-3.14
2024-01-20T03:40:39.078Z,-3.19
2024-01-20T03:43:15.349Z,-3.22
2024-01-20T03:46:02.346Z,-3.17
2024-01-20T03:48:53.931Z,-3.02
2024-01-20T03:52:01.817Z,-2.92
2024-01-20T03:54:54.306Z,-2.85
2024-01-20T03:57:31.699Z,-2.86
2024-01-20T04:00:00.613Z,-2.81
2024-01-20T04:02:40.009Z,-2.65
2024-01-20T04:05:26.265Z,-2.60
2024-01-20T04:08:09.910Z,-2.55
2024-01-20T04:10:48.945Z,-2.61
2024-01-20T04:13:32.884Z,-2.65
2024-01-20T04:16:19.649Z,-2.69
2024-01-20T04:19:13.838Z,-2.63
2024-01-20T04:21:48.623Z,-2.70
2024-01-20T04:24:38.090Z,-2.71
2024-01-20T04:27:16.767Z,-2.70
2024-01-20T04:29:58.139Z,-2.80
2024-01-20T04:32:34.618Z,-2.81
2024-01-20T04:35:06.504Z,-2.71
2024-01-20T04:37:50.070Z,-2.89
2024-01-20T04:40:31.267Z,-2.95
2024-01-20T04:43:26.371Z,-3.05
2024-01-20T04:46:07.346Z,-3.05
2024-01-20T04:48:47.366Z,-2.99
2024-01-20T04:51:34.262Z,-2.98
2024-01-20T04:54:15.658Z,-2.99
2024-01-20T04:56:56.968Z,-2.96
2024-01-20T04:59:56.639Z,-2.77
2024-01-20T05:02:36.188Z,-2.71
2024-01-20T05:05:10.698Z,-2.75
2024-01-20T05:08:28.330Z,-2.85
2024-01-20T05:11:01.189Z,-2.86
2024-01-20T05:13:33.742Z,-2.77
2024-01-20T05:16:10.467Z,-2.85
2024-01-20T05:21:33.783Z,-2.95
2024-01-20T05:24:14.818Z,-2.93
2024-01-20T05:26:50.539Z,-2.95
2024-01-20T05:29:29.085Z,-2.98
2024-01-20T05:32:26.238Z,-3.03
2024-01-20T05:35:04.770Z,-3.05
2024-01-20T05:38:00.299Z,-3.06
2024-01-20T05:40:38.465Z,-3.17
2024-01-20T05:43:38.937Z,-3.18
2024-01-20T05:46:16.292Z,-3.22
2024-01-20T05:48:57.681Z,-3.13
2024-01-20T05:51:53.228Z,-3.08
2024-01-20T05:57:16.748Z,-2.84
2024-01-20T06:00:02.330Z,-2.77
2024-01-20T06:03:02.722Z,-2.80
2024-01-20T06:06:12.282Z,-2.83
2024-01-20T06:08:43.040Z,-2.87
2024-01-20T06:11:14.835Z,-2.94
2024-01-20T06:13:51.264Z,-2.87
2024-01-20T06:16:32.944Z,-2.77
2024-01-20T06:22:31.542Z,-2.61
2024-01-20T06:25:11.045Z,-2.61
2024-01-20T06:30:48.627Z,-2.73
2024-01-20T06:36:28.185Z,-2.69
2024-01-20T06:42:41.767Z,-2.60
2024-01-20T06:45:28.627Z,-2.53
2024-01-20T06:51:04.850Z,-2.54
2024-01-20T06:53:42.044Z,-2.53
2024-01-20T06:56:19.375Z,-2.48
2024-01-20T06:58:58.981Z,-2.39
2024-01-20T07:04:37.701Z,-2.42
2024-01-20T07:07:50.214Z,-2.39
2024-01-20T07:10:25.246Z,-2.36
2024-01-20T07:13:14.639Z,-2.28
2024-01-20T07:15:47.506Z,-2.20
2024-01-20T07:18:39.056Z,-2.17
2024-01-20T07:21:14.598Z,-2.05
2024-01-20T07:24:12.524Z,-2.00
2024-01-20T07:30:04.838Z,-1.58
2024-01-20T07:32:51.403Z,-1.56
2024-01-20T07:35:19.956Z,-1.38
2024-01-20T07:37:53.228Z,-1.33
2024-01-20T07:40:32.649Z,-1.09
2024-01-20T07:43:22.831Z,-0.99
2024-01-20T07:45:57.579Z,-0.89
2024-01-20T07:48:33.789Z,-0.90
2024-01-20T07:51:03.362Z,-0.64
2024-01-20T07:53:49.011Z,-0.47
2024-01-20T07:56:22.622Z,-0.45
2024-01-20T07:59:08.107Z,-0.30
2024-01-20T08:01:53.857Z,-0.24
2024-01-20T08:04:29.629Z,-0.20
2024-01-20T08:07:02.055Z,-0.21
2024-01-20T08:09:36.941Z,-0.09
2024-01-20T08:12:11.017Z,0.09
2024-01-20T08:14:43.890Z,0.19
2024-01-20T08:17:19.250Z,0.31
2024-01-20T08:19:51.247Z,0.72
2024-01-20T08:22:29.916Z,0.79
2024-01-20T08:25:04.430Z,0.98
2024-01-20T08:27:33.952Z,1.14
2024-01-20T08:30:15.448Z,1.03
2024-01-20T08:33:00.430Z,1.36
2024-01-20T08:38:48.148Z,1.74
2024-01-20T08:41:21.980Z,2.09
2024-01-20T08:43:56.805Z,2.58
2024-01-20T08:46:34.663Z,2.88
2024-01-20T08:49:31.900Z,3.10
2024-01-20T08:52:31.166Z,3.32
2024-01-20T08:55:26.462Z,3.38
2024-01-20T08:57:57.581Z,3.53
2024-01-20T09:01:01.223Z,3.63
2024-01-20T09:03:59.219Z,3.44
2024-01-20T09:06:35.763Z,3.10
2024-01-20T09:09:44.945Z,2.92
2024-01-20T09:12:24.207Z,2.52
2024-01-20T09:15:00.147Z,2.34
2024-01-20T09:17:51.511Z,2.25
2024-01-20T09:20:29.732Z,2.12
2024-01-20T09:23:07.881Z,2.29
2024-01-20T09:25:36.586Z,2.22
2024-01-20T09:28:16.726Z,2.44
2024-01-20T09:30:49.466Z,2.45
2024-01-20T09:33:23.262Z,2.53
2024-01-20T09:35:59.139Z,2.99
2024-01-20T09:38:48.236Z,3.10
2024-01-20T09:41:29.938Z,3.21
2024-01-20T09:44:17.742Z,3.30
2024-01-20T09:52:47.142Z,3.42
2024-01-20T09:55:19.506Z,3.92
2024-01-20T09:57:47.920Z,3.76
2024-01-20T10:00:16.064Z,3.87
2024-01-20T10:02:45.576Z,3.98
2024-01-20T10:05:14.422Z,4.16
2024-01-20T10:07:43.171Z,4.17
2024-01-20T10:10:18.619Z,4.19
2024-01-20T10:12:50.474Z,3.99
2024-01-20T10:15:21.122Z,4.13
2024-01-20T10:17:49.278Z,4.58
2024-01-20T10:20:20.725Z,4.71
2024-01-20T10:22:48.841Z,4.91
2024-01-20T10:25:16.988Z,4.83
2024-01-20T10:27:44.947Z,5.33
2024-01-20T10:30:17.838Z,5.19
2024-01-20T10:36:08.753Z,5.96
2024-01-20T10:39:01.515Z,6.28
2024-01-20T10:41:30.173Z,6.82
2024-01-20T10:44:03.885Z,7.27
2024-01-20T10:46:38.070Z,6.80
2024-01-20T10:49:12.579Z,6.54
2024-01-20T10:51:42.071Z,6.86
2024-01-20T10:54:11.399Z,7.24
2024-01-20T10:56:41.559Z,7.15
2024-01-20T10:59:16.300Z,7.40
2024-01-20T11:01:48.261Z,7.72
2024-01-20T11:04:21.704Z,7.78
2024-01-20T11:06:51.652Z,7.48
2024-01-20T11:09:21.907Z,7.81
2024-01-20T11:12:02.651Z,7.89
2024-01-20T11:14:31.386Z,8.04
2024-01-20T11:17:10.169Z,8.71
2024-01-20T11:19:38.133Z,8.96
2024-01-20T11:22:05.940Z,8.93
2024-01-20T11:24:38.002Z,9.34
2024-01-20T11:27:06.442Z,9.27
2024-01-20T11:29:35.293Z,9.41
2024-01-20T11:32:06.624Z,9.28
2024-01-20T11:34:35.013Z,9.59
2024-01-20T11:37:04.255Z,9.79
2024-01-20T11:39:32.904Z,8.62
2024-01-20T11:42:03.067Z,8.94
2024-01-20T11:44:32.179Z,8.81
2024-01-20T11:47:00.856Z,8.41
2024-01-20T11:49:35.362Z,7.65
2024-01-20T11:52:03.175Z,7.73
2024-01-20T11:54:31.202Z,7.47
2024-01-20T11:56:59.008Z,7.36
2024-01-20T11:59:27.036Z,7.65
2024-01-20T12:01:54.931Z,7.65
2024-01-20T12:04:23.162Z,7.69
2024-01-20T12:06:52.343Z,7.79
2024-01-20T12:09:20.289Z,7.73
2024-01-20T12:11:48.445Z,7.38
2024-01-20T12:14:17.235Z,6.80
2024-01-20T12:16:44.879Z,6.60
2024-01-20T12:19:13.627Z,6.38
2024-01-20T12:21:42.080Z,6.41
2024-01-20T12:24:13.311Z,6.67
2024-01-20T12:27:02.651Z,6.75
2024-01-20T12:32:23.521Z,6.19
2024-01-20T12:35:09.196Z,5.75
2024-01-20T12:40:36.238Z,5.73
2024-01-20T12:46:19.574Z,5.34
2024-01-20T12:49:12.921Z,5.14
2024-01-20T12:54:44.732Z,5.15
2024-01-20T12:57:56.941Z,5.05
2024-01-20T13:00:58.558Z,4.84
2024-01-20T13:03:45.331Z,4.69
2024-01-20T13:06:40.214Z,4.58
2024-01-20T13:09:21.282Z,4.31
2024-01-20T13:17:28.899Z,3.75
2024-01-20T13:20:05.223Z,3.88
2024-01-20T13:22:56.723Z,3.66
2024-01-20T13:28:59.616Z,3.49
2024-01-20T13:34:54.661Z,3.28
2024-01-20T13:37:42.357Z,3.19
2024-01-20T13:43:40.208Z,2.74
2024-01-20T13:46:11.492Z,2.72
2024-01-20T13:48:48.737Z,2.69
2024-01-20T13:51:24.913Z,2.61
2024-01-20T13:54:31.123Z,2.51
2024-01-20T13:57:56.592Z,2.57
2024-01-20T14:00:47.032Z,2.47
2024-01-20T14:03:38.535Z,2.22
2024-01-20T14:12:23.113Z,2.20
2024-01-20T14:25:06.671Z,2.09
2024-01-20T14:27:39.852Z,1.97
2024-01-20T14:30:19.119Z,1.95
2024-01-20T14:32:58.328Z,1.98
2024-01-20T14:35:48.199Z,1.97
2024-01-20T14:38:26.597Z,2.00
2024-01-20T14:44:26.775Z,1.95
2024-01-20T14:47:24.505Z,2.05
2024-01-20T14:50:00.329Z,1.91
2024-01-20T14:52:37.202Z,2.10
2024-01-20T14:55:39.947Z,1.97
2024-01-20T14:58:31.170Z,1.79
2024-01-20T15:01:02.596Z,1.76
2024-01-20T15:06:34.429Z,1.52
2024-01-20T15:09:06.244Z,1.44
2024-01-20T15:11:43.368Z,1.38
2024-01-20T15:14:25.801Z,1.36
2024-01-20T15:16:59.269Z,1.26
2024-01-20T15:19:45.175Z,1.23
2024-01-20T15:22:34.139Z,1.15
2024-01-20T15:25:13.045Z,1.08
2024-01-20T15:27:44.578Z,1.05
2024-01-20T15:30:43.736Z,1.01
2024-01-20T15:33:28.248Z,0.93
2024-01-20T15:36:10.786Z,0.87
2024-01-20T15:38:42.074Z,0.77
2024-01-20T15:41:17.723Z,0.71
2024-01-20T15:43:49.763Z,0.72
2024-01-20T15:46:31.411Z,0.80
2024-01-20T15:49:02.330Z,0.77
2024-01-20T15:51:39.534Z,0.68
2024-01-20T15:54:12.559Z,0.66
2024-01-20T15:57:02.956Z,0.62
2024-01-20T15:59:34.494Z,0.54
2024-01-20T16:02:26.208Z,0.49
2024-01-20T16:05:15.202Z,0.42
2024-01-20T16:07:48.655Z,0.39
2024-01-20T16:10:18.352Z,0.36
2024-01-20T16:12:54.056Z,0.30
2024-01-20T16:15:24.279Z,0.24
2024-01-20T16:18:10.582Z,0.13
2024-01-20T16:20:39.447Z,0.18
2024-01-20T16:23:17.748Z,0.08
2024-01-20T16:25:56.914Z,0.05
2024-01-20T16:28:29.214Z,0.07
2024-01-20T16:31:11.778Z,0.05
2024-01-20T16:33:51.065Z,0.01
2024-01-20T16:36:20.020Z,0.00
2024-01-20T16:38:50.666Z,-0.06
2024-01-20T16:41:23.523Z,-0.19
2024-01-20T16:43:54.693Z,-0.22
2024-01-20T16:46:25.047Z,-0.26
2024-01-20T16:49:26.132Z,-0.27
2024-01-20T16:52:01.705Z,-0.42
2024-01-20T16:54:49.889Z,-0.46
2024-01-20T16:57:24.956Z,-0.50
2024-01-20T16:59:58.910Z,-0.46
2024-01-20T17:02:30.450Z,-0.44
2024-01-20T17:05:08.015Z,-0.45
2024-01-20T17:07:39.591Z,-0.49
2024-01-20T17:10:21.937Z,-0.53
2024-01-20T17:12:57.397Z,-0.46
2024-01-20T17:15:35.086Z,-0.47
2024-01-20T17:18:06.484Z,-0.48
2024-01-20T17:20:39.440Z,-0.36
2024-01-20T17:23:13.393Z,-0.34
2024-01-20T17:25:43.612Z,-0.46
2024-01-20T17:28:17.116Z,-0.65
2024-01-20T17:33:43.785Z,-0.89
2024-01-20T17:36:27.837Z,-1.01
2024-01-20T17:39:23.768Z,-1.10
2024-01-20T17:41:59.170Z,-1.12
2024-01-20T17:44:31.977Z,-1.13
2024-01-20T17:47:23.816Z,-0.97
2024-01-20T17:49:55.142Z,-0.85
2024-01-20T17:52:31.105Z,-0.77
2024-01-20T17:55:02.157Z,-0.73
2024-01-20T17:57:41.679Z,-0.86
2024-01-20T18:00:15.303Z,-0.89
2024-01-20T18:02:53.847Z,-0.88
2024-01-20T18:05:23.123Z,-0.86
2024-01-20T18:08:13.726Z,-0.75
2024-01-20T18:10:47.011Z,-0.58
2024-01-20T18:13:19.011Z,-0.56
2024-01-20T18:15:51.324Z,-0.58
2024-01-20T18:18:32.999Z,-0.61
2024-01-20T18:21:03.388Z,-0.58
2024-01-20T18:23:36.451Z,-0.59
2024-01-20T18:26:09.604Z,-0.64
2024-01-20T18:28:45.014Z,-0.62
2024-01-20T18:31:19.163Z,-0.67
2024-01-20T18:33:52.978Z,-0.67
2024-01-20T18:36:26.672Z,-0.46
2024-01-20T18:38:59.900Z,-0.44
2024-01-20T18:41:28.643Z,-0.32
2024-01-20T18:44:07.722Z,-0.27
2024-01-20T18:49:24.144Z,-0.10
2024-01-20T18:52:05.401Z,-0.02
2024-01-20T18:54:41.761Z,0.10
2024-01-20T18:57:16.719Z,0.17
2024-01-20T18:59:50.855Z,0.26
2024-01-20T19:02:28.887Z,0.31
2024-01-20T19:05:16.536Z,0.32
2024-01-20T19:07:49.079Z,0.42
2024-01-20T19:10:41.280Z,0.52
2024-01-20T19:13:15.809Z,0.53
2024-01-20T19:15:46.865Z,0.57
2024-01-20T19:18:16.943Z,0.58
2024-01-20T19:20:52.765Z,0.55
2024-01-20T19:23:21.689Z,0.56
2024-01-20T19:25:57.477Z,0.56
2024-01-20T19:28:29.851Z,0.60
2024-01-20T19:31:05.490Z,0.61
2024-01-20T19:33:39.749Z,0.67
2024-01-20T19:36:20.696Z,0.70
2024-01-20T19:38:50.771Z,0.67
2024-01-20T19:41:34.887Z,0.69
2024-01-20T19:44:04.580Z,0.74
2024-01-20T19:46:40.550Z,0.71
2024-01-20T19:49:10.570Z,0.83
2024-01-20T19:51:41.412Z,0.80
2024-01-20T19:54:12.390Z,0.70
2024-01-20T19:56:53.417Z,0.68
2024-01-20T19:59:27.574Z,0.77
2024-01-20T20:02:01.230Z,0.80
2024-01-20T20:04:42.750Z,0.71
2024-01-20T20:07:16.664Z,0.76
2024-01-20T20:09:48.020Z,0.85
2024-01-20T20:12:28.706Z,0.85
2024-01-20T20:15:00.310Z,0.93
2024-01-20T20:17:32.782Z,0.95
2024-01-20T20:20:07.003Z,0.90
2024-01-20T20:22:38.961Z,0.86
2024-01-20T20:25:07.909Z,0.86
2024-01-20T20:27:49.447Z,0.86
2024-01-20T20:30:18.560Z,0.79
2024-01-20T20:32:53.490Z,0.71
2024-01-20T20:35:36.569Z,0.71
2024-01-20T20:38:12.583Z,0.79
2024-01-20T20:40:50.474Z,0.81
2024-01-20T20:43:29.915Z,0.82
2024-01-20T20:46:11.542Z,0.78
2024-01-20T20:48:46.637Z,0.87
2024-01-20T20:51:16.042Z,0.92
2024-01-20T20:54:03.589Z,0.95
2024-01-20T20:56:34.916Z,1.00
2024-01-20T20:59:14.725Z,1.01
2024-01-20T21:01:47.053Z,1.03
2024-01-20T21:04:18.078Z,1.03
2024-01-20T21:06:49.172Z,1.02
2024-01-20T21:09:19.842Z,1.07
2024-01-20T21:11:49.573Z,1.21
2024-01-20T21:14:26.704Z,1.17
2024-01-20T21:16:56.692Z,1.21
2024-01-20T21:19:26.425Z,1.16
2024-01-20T21:21:54.193Z,1.25
2024-01-20T21:24:23.970Z,1.29
2024-01-20T21:27:01.027Z,1.18
2024-01-20T21:29:38.591Z,1.14
2024-01-20T21:32:10.669Z,1.22
2024-01-20T21:34:44.408Z,1.18
2024-01-20T21:37:12.908Z,1.15
2024-01-20T21:39:47.369Z,1.21
2024-01-20T21:42:26.885Z,1.24
2024-01-20T21:45:09.142Z,1.25
2024-01-20T21:47:39.542Z,1.25
2024-01-20T21:50:12.760Z,1.24
2024-01-20T21:52:51.469Z,1.36
2024-01-20T21:55:38.855Z,1.42
2024-01-20T21:58:10.137Z,1.43
2024-01-20T22:00:45.355Z,1.40
2024-01-20T22:03:14.709Z,1.36
2024-01-20T22:05:44.604Z,1.30
2024-01-20T22:08:17.556Z,1.36
2024-01-20T22:10:58.834Z,1.40
2024-01-20T22:13:33.494Z,1.41
2024-01-20T22:16:19.129Z,1.38
2024-01-20T22:18:47.545Z,1.40
2024-01-20T22:21:23.877Z,1.40
2024-01-20T22:23:55.263Z,1.44
2024-01-20T22:26:28.889Z,1.38
2024-01-20T22:29:01.298Z,1.31
2024-01-20T22:31:40.803Z,1.25
2024-01-20T22:34:13.035Z,1.09
2024-01-20T22:36:51.123Z,1.04
2024-01-20T22:39:32.104Z,1.06
2024-01-20T22:42:18.612Z,1.01
2024-01-20T22:44:50.503Z,0.94
2024-01-20T22:47:23.968Z,0.88
2024-01-20T22:49:55.919Z,0.90
2024-01-20T22:52:27.749Z,1.00
2024-01-20T22:55:00.089Z,1.16
2024-01-20T22:57:31.723Z,1.10
2024-01-20T23:00:09.557Z,1.12
2024-01-20T23:02:42.307Z,1.06
2024-01-20T23:05:16.139Z,1.01
2024-01-20T23:07:48.047Z,0.97
2024-01-20T23:10:16.164Z,1.03
2024-01-20T23:12:48.791Z,1.12
2024-01-20T23:15:26.794Z,1.11
2024-01-20T23:18:01.663Z,1.08
2024-01-20T23:20:34.776Z,1.06
2024-01-20T23:23:05.454Z,1.09
2024-01-20T23:25:34.402Z,1.01
2024-01-20T23:28:05.768Z,1.11
2024-01-20T23:30:35.526Z,1.11
2024-01-20T23:33:19.290Z,1.13
2024-01-20T23:35:54.209Z,1.16
2024-01-20T23:38:27.724Z,1.24
2024-01-20T23:40:57.472Z,1.23
2024-01-20T23:43:28.889Z,1.25
2024-01-20T23:45:58.244Z,1.21
2024-01-20T23:48:35.627Z,1.22
2024-01-20T23:51:08.861Z,1.25
2024-01-20T23:53:38.192Z,1.29
2024-01-20T23:56:11.012Z,1.27
2024-01-20T23:58:48.179Z,1.27
